Time;durP1;ratioP1;P1;durP2;ratioP2;P2;SDS_P1;SDS_P2;PMS_P1;PMS_P2;Temp;Humidity;BMP_temperature;BMP_pressure;BME280_temperature;BME280_humidity;BME280_pressure;Samples;Min_cycle;Max_cycle;Signal;HPM_P1;HPM_P2
2022/10/19 00:00:21;;;;;;;7.83;5.50;;;12.50;99.90;12.40;101586.00;;;;4950961;28;92926;-68
2022/10/19 00:02:47;;;;;;;10.73;6.63;;;12.50;99.90;12.50;101592.00;;;;4945702;28;108194;-68
2022/10/19 00:05:12;;;;;;;9.37;5.37;;;12.50;99.90;12.50;101582.00;;;;4950274;28;121600;-67
2022/10/19 00:07:38;;;;;;;6.97;5.43;;;12.50;99.90;12.50;101580.00;;;;4948796;28;121759;-68
2022/10/19 00:10:04;;;;;;;11.83;6.47;;;12.50;99.90;12.40;101587.00;;;;4947128;28;108869;-68
2022/10/19 00:12:30;;;;;;;10.43;6.07;;;12.50;99.90;12.40;101589.00;;;;4951991;28;98965;-68
2022/10/19 00:14:56;;;;;;;10.73;7.67;;;12.40;99.90;12.40;101586.00;;;;4948151;28;119825;-68
2022/10/19 00:17:21;;;;;;;8.43;5.80;;;12.40;99.90;12.40;101589.00;;;;4950404;28;112735;-68
2022/10/19 00:19:47;;;;;;;10.37;7.57;;;12.40;99.90;12.40;101591.00;;;;4952456;28;109420;-68
2022/10/19 00:22:13;;;;;;;13.43;6.40;;;12.40;99.90;12.40;101592.00;;;;4948098;28;103793;-67
2022/10/19 00:24:39;;;;;;;9.10;6.63;;;12.40;99.90;12.40;101600.00;;;;4941483;28;93890;-68
2022/10/19 00:27:05;;;;;;;10.83;6.00;;;12.40;99.90;12.30;101596.00;;;;4948934;28;122597;-68
2022/10/19 00:29:31;;;;;;;8.10;6.13;;;12.40;99.90;12.30;101603.00;;;;4946885;28;92161;-68
2022/10/19 00:31:57;;;;;;;9.97;6.27;;;12.40;99.90;12.30;101613.00;;;;4952580;28;108926;-68
2022/10/19 00:34:23;;;;;;;6.83;5.07;;;12.30;99.90;12.30;101597.00;;;;4952296;28;122222;-68
2022/10/19 00:36:48;;;;;;;10.50;6.37;;;12.30;99.90;12.20;101588.00;;;;4945330;28;122877;-68
2022/10/19 00:39:16;;;;;;;6.23;4.93;;;12.30;99.90;12.10;101589.00;;;;4949489;28;109737;-67
2022/10/19 00:41:44;;;;;;;7.33;5.10;;;12.20;99.90;12.00;101592.00;;;;4953355;28;92698;-67
2022/10/19 00:44:14;;;;;;;5.97;5.30;;;12.10;99.90;12.00;101594.00;;;;4944772;28;92998;-67
2022/10/19 00:46:43;;;;;;;7.60;5.07;;;12.00;99.90;11.90;101596.00;;;;4939826;28;92935;-67
2022/10/19 00:49:25;;;;;;;5.90;4.77;;;11.90;99.90;11.70;101591.00;;;;4940833;28;105086;-68
2022/10/19 00:51:55;;;;;;;7.90;4.77;;;11.90;99.90;11.70;101588.00;;;;4944147;28;97549;-67
2022/10/19 00:54:22;;;;;;;6.43;4.53;;;11.80;99.90;11.60;101584.00;;;;4950460;28;112379;-68
2022/10/19 00:56:51;;;;;;;10.60;4.07;;;11.70;99.90;11.50;101578.00;;;;4961217;28;93016;-68
2022/10/19 00:59:21;;;;;;;9.00;4.83;;;11.60;99.90;11.40;101584.00;;;;4953013;28;93237;-67
2022/10/19 01:01:47;;;;;;;5.10;4.57;;;11.50;99.90;11.30;101586.00;;;;4949520;28;94379;-67
2022/10/19 01:04:14;;;;;;;5.50;3.83;;;11.40;99.90;11.30;101594.00;;;;4947123;28;121551;-67
2022/10/19 01:06:40;;;;;;;6.53;3.80;;;11.30;99.90;11.20;101598.00;;;;4941973;28;120466;-67
2022/10/19 01:09:07;;;;;;;4.47;3.90;;;11.30;99.90;11.10;101598.00;;;;4942532;28;92913;-67
2022/10/19 01:11:38;;;;;;;4.97;3.73;;;11.30;99.90;11.10;101595.00;;;;4943451;28;92817;-67
2022/10/19 01:14:27;;;;;;;4.63;3.30;;;11.10;99.90;11.00;101592.00;;;;4947002;28;115667;-67
2022/10/19 01:17:17;;;;;;;15.13;3.57;;;11.10;99.90;11.00;101583.00;;;;4965879;28;112732;-67
2022/10/19 01:20:20;;;;;;;4.83;3.57;;;11.10;99.90;11.00;101580.00;;;;4947135;28;96470;-67
2022/10/19 01:23:01;;;;;;;4.87;4.13;;;11.10;99.90;11.00;101575.00;;;;4950639;28;92801;-67
2022/10/19 01:26:04;;;;;;;5.80;3.80;;;11.10;99.90;11.00;101577.00;;;;4949414;28;116002;-67
2022/10/19 01:28:53;;;;;;;6.60;5.00;;;11.10;99.90;11.00;101582.00;;;;4944500;28;93962;-67
2022/10/19 01:31:50;;;;;;;5.40;4.20;;;11.10;99.90;11.00;101576.00;;;;4952419;28;92902;-67
2022/10/19 01:34:45;;;;;;;5.33;4.07;;;11.10;99.90;10.90;101578.00;;;;4943897;28;92861;-67
2022/10/19 01:37:33;;;;;;;4.87;3.57;;;11.00;99.90;10.90;101576.00;;;;4946400;28;109155;-67
2022/10/19 01:40:10;;;;;;;5.20;4.10;;;11.00;99.90;10.90;101573.00;;;;4961428;28;94127;-67
2022/10/19 01:42:47;;;;;;;4.10;3.27;;;11.00;99.90;10.90;101581.00;;;;4967490;28;96933;-67
2022/10/19 01:45:24;;;;;;;9.07;4.10;;;10.90;99.90;10.80;101582.00;;;;4949234;28;102063;-67
2022/10/19 01:48:07;;;;;;;7.00;4.10;;;10.90;99.90;10.80;101585.00;;;;4943860;28;92117;-67
2022/10/19 01:50:51;;;;;;;5.07;4.30;;;10.90;99.90;10.80;101576.00;;;;4949041;28;111445;-67
2022/10/19 01:53:18;;;;;;;5.00;4.00;;;10.90;99.90;10.80;101576.00;;;;4952204;28;93494;-67
2022/10/19 01:55:50;;;;;;;5.57;4.40;;;10.90;99.90;10.90;101584.00;;;;4949903;28;94026;-67
2022/10/19 01:58:23;;;;;;;3.97;3.43;;;10.90;99.90;10.90;101587.00;;;;4964589;28;93888;-67
2022/10/19 02:00:51;;;;;;;5.80;3.87;;;10.90;99.90;10.90;101577.00;;;;4946712;28;97790;-67
2022/10/19 02:03:18;;;;;;;5.73;3.77;;;10.90;99.90;10.90;101562.00;;;;4945106;28;98668;-67
2022/10/19 02:05:44;;;;;;;3.40;2.97;;;10.90;99.90;10.90;101570.00;;;;4937314;28;92946;-67
2022/10/19 02:08:16;;;;;;;4.43;3.50;;;11.00;99.90;10.90;101559.00;;;;4947758;28;104994;-67
2022/10/19 02:10:44;;;;;;;5.83;4.40;;;10.90;99.90;10.90;101556.00;;;;4950237;28;103166;-68
2022/10/19 02:13:12;;;;;;;4.80;4.33;;;10.90;99.90;10.80;101561.00;;;;4951920;28;108970;-67
2022/10/19 02:15:43;;;;;;;7.40;4.80;;;10.90;99.90;10.80;101553.00;;;;4949920;28;92734;-67
2022/10/19 02:18:13;;;;;;;7.27;4.27;;;10.90;99.90;10.80;101561.00;;;;4951128;28;93245;-68
2022/10/19 02:20:38;;;;;;;5.97;4.23;;;10.90;99.90;10.80;101559.00;;;;4949586;28;107366;-68
2022/10/19 02:23:05;;;;;;;6.67;4.87;;;10.90;99.90;10.80;101567.00;;;;4947094;28;111132;-67
2022/10/19 02:25:32;;;;;;;10.07;5.20;;;10.80;99.90;10.80;101559.00;;;;4953755;28;92821;-67
2022/10/19 02:28:00;;;;;;;5.10;4.30;;;10.80;99.90;10.80;101571.00;;;;4939148;28;115523;-67
2022/10/19 02:30:25;;;;;;;7.27;4.27;;;10.80;99.90;10.80;101571.00;;;;4950039;28;100398;-67
2022/10/19 02:32:51;;;;;;;5.90;4.40;;;10.80;99.90;10.80;101571.00;;;;4947729;28;109772;-67
2022/10/19 02:35:17;;;;;;;5.10;4.60;;;10.80;99.90;10.80;101569.00;;;;4950218;28;108611;-66
2022/10/19 02:37:43;;;;;;;7.07;5.17;;;10.80;99.90;10.70;101575.00;;;;4946109;28;122512;-67
2022/10/19 02:40:10;;;;;;;14.23;3.33;;;10.80;99.90;10.70;101569.00;;;;4950263;28;122629;-67
2022/10/19 02:42:53;;;;;;;6.00;3.27;;;10.80;99.90;10.70;101574.00;;;;4950268;28;92838;-66
2022/10/19 02:45:28;;;;;;;5.33;3.73;;;10.80;99.90;10.70;101569.00;;;;4949691;28;93938;-66
2022/10/19 02:48:03;;;;;;;5.97;3.50;;;10.80;99.90;10.70;101564.00;;;;4949882;28;93639;-66
2022/10/19 02:50:29;;;;;;;5.80;4.30;;;10.80;99.90;10.70;101558.00;;;;4950488;28;93952;-66
2022/10/19 02:52:58;;;;;;;4.67;3.13;;;10.70;99.90;10.70;101563.00;;;;4943387;28;111004;-66
2022/10/19 02:55:23;;;;;;;6.73;4.43;;;10.70;99.90;10.70;101556.00;;;;4950815;28;93104;-66
2022/10/19 02:57:49;;;;;;;6.10;4.13;;;10.70;99.90;10.70;101557.00;;;;4947708;28;122177;-66
2022/10/19 03:00:15;;;;;;;5.40;3.50;;;10.70;99.90;10.60;101561.00;;;;4943374;28;122685;-66
2022/10/19 03:02:41;;;;;;;3.17;2.77;;;10.70;99.90;10.60;101566.00;;;;4950912;28;104400;-66
2022/10/19 03:05:08;;;;;;;6.50;4.43;;;10.70;99.90;10.60;101566.00;;;;4945022;28;109116;-67
2022/10/19 03:07:34;;;;;;;6.83;4.37;;;10.70;99.90;10.60;101552.00;;;;4941141;28;113430;-67
2022/10/19 03:10:00;;;;;;;5.47;4.10;;;10.70;99.90;10.60;101558.00;;;;4946626;28;114526;-67
2022/10/19 03:12:25;;;;;;;4.47;3.47;;;10.60;99.90;10.60;101564.00;;;;4943732;28;93206;-67
2022/10/19 03:14:51;;;;;;;6.77;3.40;;;10.60;99.90;10.50;101569.00;;;;4945290;28;108868;-67
2022/10/19 03:17:17;;;;;;;5.53;3.10;;;10.60;99.90;10.50;101562.00;;;;4950596;28;93574;-67
2022/10/19 03:19:43;;;;;;;5.47;3.57;;;10.60;99.90;10.50;101552.00;;;;4946314;28;121850;-67
2022/10/19 03:22:08;;;;;;;4.53;4.07;;;10.60;99.90;10.50;101560.00;;;;4944878;28;93037;-67
2022/10/19 03:24:35;;;;;;;5.37;3.60;;;10.60;99.90;10.50;101575.00;;;;4951145;28;108047;-67
2022/10/19 03:27:00;;;;;;;3.57;2.87;;;10.60;99.90;10.50;101558.00;;;;4947478;28;122626;-67
2022/10/19 03:29:26;;;;;;;4.10;3.13;;;10.60;99.90;10.50;101550.00;;;;4944809;28;121291;-66
2022/10/19 03:31:52;;;;;;;4.57;3.63;;;10.60;99.90;10.50;101547.00;;;;4950298;28;110157;-67
2022/10/19 03:34:18;;;;;;;6.97;3.93;;;10.60;99.90;10.50;101549.00;;;;4945319;28;100598;-67
2022/10/19 03:36:44;;;;;;;3.97;3.57;;;10.50;99.90;10.40;101543.00;;;;4944501;28;122900;-66
2022/10/19 03:39:12;;;;;;;6.60;3.43;;;10.50;99.90;10.40;101544.00;;;;4948224;28;95674;-67
2022/10/19 03:41:39;;;;;;;8.97;4.27;;;10.50;99.90;10.40;101553.00;;;;4947655;28;93151;-67
2022/10/19 03:44:06;;;;;;;4.53;3.83;;;10.50;99.90;10.30;101553.00;;;;4951865;28;92922;-66
2022/10/19 03:46:34;;;;;;;7.17;3.30;;;10.40;99.90;10.20;101546.00;;;;4950393;28;93694;-66
2022/10/19 03:49:00;;;;;;;4.47;3.83;;;10.40;99.90;10.20;101560.00;;;;4944242;28;92921;-65
2022/10/19 03:51:28;;;;;;;5.67;3.67;;;10.30;99.90;10.20;101556.00;;;;4947120;28;92071;-67
2022/10/19 03:53:57;;;;;;;4.97;3.53;;;10.20;99.90;10.10;101569.00;;;;4951961;28;93166;-67
2022/10/19 03:56:25;;;;;;;4.57;3.47;;;10.20;99.90;10.00;101573.00;;;;4945789;28;92799;-67
2022/10/19 03:58:54;;;;;;;5.20;3.83;;;10.10;99.90;10.10;101578.00;;;;4946921;28;93839;-66
2022/10/19 04:01:22;;;;;;;6.17;3.67;;;10.10;99.90;10.00;101584.00;;;;4948555;28;93098;-66
2022/10/19 04:03:56;;;;;;;4.70;3.97;;;10.10;99.90;10.10;101587.00;;;;4944474;28;92878;-65
2022/10/19 04:06:29;;;;;;;5.07;3.43;;;10.20;99.90;10.10;101578.00;;;;4950727;28;106010;-66
2022/10/19 04:08:55;;;;;;;4.80;3.87;;;10.20;99.90;10.10;101581.00;;;;4945732;28;107893;-66
2022/10/19 04:11:25;;;;;;;4.47;3.17;;;10.10;99.90;10.10;101576.00;;;;4944981;28;92851;-66
2022/10/19 04:13:52;;;;;;;8.53;3.80;;;10.10;99.90;10.10;101576.00;;;;4949335;28;92969;-66
2022/10/19 04:16:19;;;;;;;4.63;3.17;;;10.10;99.90;10.10;101576.00;;;;4950648;28;96537;-66
2022/10/19 04:18:46;;;;;;;3.10;2.80;;;10.20;99.90;10.10;101580.00;;;;4944659;28;115766;-66
2022/10/19 04:21:43;;;;;;;6.83;4.93;;;10.10;99.90;10.00;101580.00;;;;4949996;28;92890;-66
2022/10/19 04:24:14;;;;;;;4.97;3.50;;;10.10;99.90;10.00;101589.00;;;;4945951;28;93645;-66
2022/10/19 04:26:45;;;;;;;5.20;3.53;;;10.10;99.90;9.90;101584.00;;;;4944764;28;93762;-66
2022/10/19 04:29:11;;;;;;;7.77;4.13;;;10.00;99.90;9.80;101575.00;;;;4938361;28;93131;-66
2022/10/19 04:31:37;;;;;;;4.23;3.70;;;10.00;99.90;9.80;101581.00;;;;4946840;28;92905;-66
2022/10/19 04:34:04;;;;;;;4.67;2.97;;;9.90;99.90;9.80;101580.00;;;;4953104;28;92830;-65
2022/10/19 04:36:30;;;;;;;3.83;3.50;;;9.90;99.90;9.80;101576.00;;;;4952555;28;115165;-65
2022/10/19 04:38:56;;;;;;;4.20;3.17;;;9.90;99.90;9.70;101589.00;;;;4946266;28;113942;-66
2022/10/19 04:41:22;;;;;;;4.63;4.23;;;9.80;99.90;9.70;101574.00;;;;4950629;28;109644;-66
2022/10/19 04:43:54;;;;;;;3.90;3.50;;;9.80;99.90;9.70;101570.00;;;;4953538;28;92607;-68
2022/10/19 04:46:19;;;;;;;5.33;3.50;;;9.70;99.90;9.70;101571.00;;;;4947414;28;93815;-68
2022/10/19 04:48:47;;;;;;;4.10;3.80;;;9.70;99.90;9.70;101574.00;;;;4944093;28;93822;-68
2022/10/19 04:51:14;;;;;;;6.93;3.50;;;9.80;99.90;9.70;101586.00;;;;4950775;28;92889;-67
2022/10/19 04:53:41;;;;;;;5.13;3.37;;;9.80;99.90;9.70;101587.00;;;;4949770;28;92633;-66
2022/10/19 04:56:15;;;;;;;5.13;3.80;;;9.80;99.90;9.80;101580.00;;;;4951661;28;93175;-68
2022/10/19 04:58:41;;;;;;;4.70;4.03;;;9.80;99.90;9.80;101584.00;;;;4947178;28;93834;-66
2022/10/19 05:01:16;;;;;;;6.77;4.17;;;9.80;99.90;9.80;101591.00;;;;4944460;28;110548;-67
2022/10/19 05:03:42;;;;;;;4.87;3.77;;;9.90;99.90;9.90;101589.00;;;;4952505;28;92912;-67
2022/10/19 05:06:09;;;;;;;9.37;4.17;;;9.90;99.90;9.90;101594.00;;;;4942567;28;93831;-68
2022/10/19 05:08:35;;;;;;;3.97;3.17;;;9.70;99.90;9.90;101595.00;;;;4945888;28;93042;-68
2022/10/19 05:11:08;;;;;;;5.73;3.60;;;10.00;99.90;9.90;101598.00;;;;4953053;28;92852;-67
2022/10/19 05:13:34;;;;;;;3.60;3.27;;;10.00;99.90;10.00;101595.00;;;;4946971;28;93866;-67
2022/10/19 05:16:02;;;;;;;5.37;3.80;;;10.00;99.90;10.00;101599.00;;;;4946211;28;105415;-67
2022/10/19 05:18:29;;;;;;;7.53;3.93;;;10.00;99.90;10.00;101597.00;;;;4950523;28;96294;-67
2022/10/19 05:21:12;;;;;;;3.63;3.30;;;10.10;99.90;10.00;101590.00;;;;4948246;28;102306;-67
2022/10/19 05:23:39;;;;;;;7.07;4.30;;;10.10;99.90;10.10;101589.00;;;;4944009;28;92806;-67
2022/10/19 05:26:10;;;;;;;6.20;3.43;;;10.10;99.90;10.10;101582.00;;;;4953115;28;92770;-66
2022/10/19 05:28:36;;;;;;;4.27;3.37;;;10.10;99.90;10.10;101588.00;;;;4942311;28;93088;-66
2022/10/19 05:31:10;;;;;;;6.13;4.03;;;10.10;99.90;10.00;101573.00;;;;4949155;28;92206;-66
2022/10/19 05:33:37;;;;;;;4.70;3.10;;;10.10;99.90;10.00;101574.00;;;;4951250;28;93021;-66
2022/10/19 05:36:35;;;;;;;6.33;4.40;;;10.10;99.90;10.00;101584.00;;;;4946599;28;94065;-67
2022/10/19 05:39:06;;;;;;;6.83;3.80;;;10.10;99.90;10.00;101582.00;;;;4950409;28;93842;-65
2022/10/19 05:41:32;;;;;;;5.83;3.67;;;10.10;99.90;10.00;101578.00;;;;4947206;28;92790;-65
2022/10/19 05:43:59;;;;;;;6.30;4.03;;;10.10;99.90;10.00;101588.00;;;;4942000;28;101124;-67
2022/10/19 05:46:27;;;;;;;5.13;4.03;;;10.10;99.90;10.00;101585.00;;;;4942002;28;104974;-67
2022/10/19 05:48:55;;;;;;;11.77;4.07;;;10.10;99.90;10.00;101594.00;;;;4946488;28;113305;-67
2022/10/19 05:51:22;;;;;;;4.07;3.67;;;10.10;99.90;10.10;101596.00;;;;4946626;28;92891;-67
2022/10/19 05:53:49;;;;;;;6.43;2.80;;;10.10;99.90;10.10;101602.00;;;;4952978;28;92774;-67
2022/10/19 05:56:21;;;;;;;3.40;2.80;;;10.10;99.90;10.10;101607.00;;;;4951922;28;93868;-67
2022/10/19 05:58:47;;;;;;;4.47;3.63;;;10.20;99.90;10.10;101604.00;;;;4947623;28;92954;-67
2022/10/19 06:01:17;;;;;;;5.70;3.97;;;10.20;99.90;10.10;101620.00;;;;4951929;28;92747;-67
2022/10/19 06:03:43;;;;;;;6.93;4.47;;;10.20;99.90;10.10;101622.00;;;;4944884;28;94074;-66
2022/10/19 06:06:09;;;;;;;4.13;2.70;;;10.20;99.90;10.20;101621.00;;;;4948767;28;115095;-66
2022/10/19 06:08:37;;;;;;;7.03;3.83;;;10.20;99.90;10.20;101635.00;;;;4951286;28;94969;-66
2022/10/19 06:11:06;;;;;;;4.40;2.90;;;10.20;99.90;10.20;101631.00;;;;4940705;28;92844;-66
2022/10/19 06:13:32;;;;;;;7.23;3.60;;;10.20;99.90;10.20;101631.00;;;;4952746;28;93152;-65
2022/10/19 06:15:58;;;;;;;4.30;3.03;;;10.30;99.90;10.20;101630.00;;;;4952766;28;93338;-65
2022/10/19 06:18:24;;;;;;;5.87;2.83;;;10.30;99.90;10.30;101632.00;;;;4946914;28;122956;-65
2022/10/19 06:20:51;;;;;;;3.93;3.00;;;10.30;99.90;10.30;101630.00;;;;4947893;28;92125;-65
2022/10/19 06:23:17;;;;;;;4.33;3.07;;;10.30;99.90;10.30;101632.00;;;;4950730;28;97731;-65
2022/10/19 06:25:43;;;;;;;5.63;3.13;;;10.40;99.90;10.30;101642.00;;;;4943439;28;123148;-65
2022/10/19 06:28:09;;;;;;;4.37;3.20;;;10.40;99.90;10.30;101640.00;;;;4938929;28;120061;-65
2022/10/19 06:30:40;;;;;;;11.67;4.03;;;10.40;99.90;10.40;101642.00;;;;4952506;28;92999;-65
2022/10/19 06:33:06;;;;;;;3.80;3.40;;;10.50;99.90;10.40;101642.00;;;;4944536;28;109125;-65
2022/10/19 06:35:33;;;;;;;4.80;3.23;;;10.50;99.90;10.40;101653.00;;;;4949453;28;93489;-65
2022/10/19 06:37:59;;;;;;;4.03;2.67;;;10.50;99.90;10.40;101647.00;;;;4951662;28;93209;-65
2022/10/19 06:40:25;;;;;;;8.37;3.23;;;10.50;99.90;10.50;101634.00;;;;4947709;28;93154;-65
2022/10/19 06:42:51;;;;;;;5.47;3.40;;;10.50;99.90;10.50;101642.00;;;;4946836;28;108401;-64
2022/10/19 06:45:17;;;;;;;3.83;3.03;;;10.60;99.90;10.50;101655.00;;;;4950193;28;121279;-64
2022/10/19 06:47:42;;;;;;;4.50;3.23;;;10.60;99.90;10.50;101655.00;;;;4944936;28;93029;-64
2022/10/19 06:50:08;;;;;;;3.93;3.03;;;10.60;99.90;10.60;101671.00;;;;4946447;28;109812;-64
2022/10/19 06:52:34;;;;;;;6.23;3.23;;;10.60;99.90;10.60;101660.00;;;;4948949;28;95366;-64
2022/10/19 06:55:00;;;;;;;2.97;2.23;;;10.60;99.90;10.60;101658.00;;;;4946050;28;93906;-64
2022/10/19 06:57:27;;;;;;;9.93;3.73;;;10.70;99.90;10.70;101663.00;;;;4949225;28;111679;-65
2022/10/19 06:59:53;;;;;;;5.50;3.20;;;10.70;99.90;10.70;101652.00;;;;4949321;28;92850;-65
2022/10/19 07:02:19;;;;;;;6.30;2.93;;;10.70;99.90;10.70;101656.00;;;;4944223;28;92933;-64
2022/10/19 07:04:45;;;;;;;4.67;3.87;;;10.80;99.90;10.80;101665.00;;;;4945128;28;93658;-64
2022/10/19 07:07:11;;;;;;;5.10;3.03;;;10.80;99.90;10.80;101675.00;;;;4948496;28;122185;-64
2022/10/19 07:09:36;;;;;;;4.37;2.73;;;10.90;99.90;10.90;101670.00;;;;4943164;28;111417;-65
2022/10/19 07:12:02;;;;;;;3.90;3.13;;;11.00;99.90;11.00;101676.00;;;;4950162;28;109018;-64
2022/10/19 07:14:28;;;;;;;7.03;2.30;;;11.00;99.90;11.00;101669.00;;;;4948626;28;112682;-64
2022/10/19 07:16:54;;;;;;;7.03;3.23;;;11.10;99.90;11.10;101667.00;;;;4948810;28;111399;-64
2022/10/19 07:19:21;;;;;;;3.47;2.13;;;11.10;99.90;11.10;101677.00;;;;4950845;28;101727;-63
2022/10/19 07:21:51;;;;;;;2.53;2.30;;;11.20;99.90;11.20;101677.00;;;;4961034;28;100670;-64
2022/10/19 07:24:17;;;;;;;4.43;3.03;;;11.20;99.90;11.20;101676.00;;;;4949256;28;93683;-64
2022/10/19 07:26:43;;;;;;;3.97;2.77;;;11.30;99.90;11.30;101682.00;;;;4945269;28;93684;-63
2022/10/19 07:29:09;;;;;;;5.37;2.40;;;11.30;99.90;11.40;101682.00;;;;4942706;28;110513;-64
2022/10/19 07:31:34;;;;;;;3.07;2.07;;;11.40;99.90;11.50;101682.00;;;;4944577;28;110207;-62
2022/10/19 07:34:03;;;;;;;3.67;2.70;;;11.50;99.90;11.60;101682.00;;;;4951210;28;93081;-62
2022/10/19 07:36:32;;;;;;;4.43;2.20;;;11.60;99.90;11.60;101690.00;;;;4948397;28;93013;-62
2022/10/19 07:38:57;;;;;;;2.90;2.10;;;11.60;99.90;11.70;101687.00;;;;4947118;28;92847;-62
2022/10/19 07:41:25;;;;;;;2.07;1.87;;;11.70;99.90;11.80;101695.00;;;;4951052;28;93923;-62
2022/10/19 07:43:52;;;;;;;2.67;2.20;;;11.70;99.90;11.80;101695.00;;;;4944985;28;115140;-62
2022/10/19 07:46:24;;;;;;;5.90;2.20;;;11.90;99.90;11.90;101697.00;;;;4945766;28;92951;-61
2022/10/19 07:48:50;;;;;;;6.93;1.67;;;11.90;99.90;12.00;101695.00;;;;4943905;28;93146;-62
2022/10/19 07:51:18;;;;;;;5.40;2.03;;;12.00;99.90;12.00;101689.00;;;;4940774;28;92855;-62
2022/10/19 07:53:44;;;;;;;3.30;1.83;;;12.10;99.90;12.00;101687.00;;;;4949574;28;95286;-61
2022/10/19 07:56:20;;;;;;;1.20;1.10;;;12.00;99.90;12.10;101694.00;;;;4950481;28;93257;-61
2022/10/19 07:58:46;;;;;;;2.50;1.57;;;12.20;99.90;12.20;101696.00;;;;4949660;28;98595;-62
2022/10/19 08:01:19;;;;;;;3.40;1.77;;;12.20;99.90;12.20;101700.00;;;;4948150;28;98676;-61
2022/10/19 08:03:46;;;;;;;2.50;1.47;;;12.20;99.90;12.20;101694.00;;;;4952690;28;93522;-59
2022/10/19 08:06:15;;;;;;;3.37;1.70;;;12.30;99.90;12.30;101698.00;;;;4946676;28;93721;-60
2022/10/19 08:08:41;;;;;;;2.97;1.50;;;12.30;99.90;12.30;101708.00;;;;4945846;28;92853;-62
2022/10/19 08:11:26;;;;;;;2.10;1.30;;;12.30;99.90;12.40;101706.00;;;;4947173;28;93036;-61
2022/10/19 08:13:52;;;;;;;2.13;1.83;;;12.40;99.90;12.50;101708.00;;;;4949665;28;93936;-61
2022/10/19 08:16:24;;;;;;;4.43;1.33;;;12.50;99.90;12.60;101709.00;;;;4953478;28;93234;-61
2022/10/19 08:18:51;;;;;;;1.27;1.17;;;12.60;99.90;12.60;101702.00;;;;4950588;28;93770;-61
2022/10/19 08:21:17;;;;;;;2.37;1.83;;;12.60;99.90;12.80;101704.00;;;;4953418;28;92971;-60
2022/10/19 08:23:42;;;;;;;2.90;1.23;;;12.80;99.90;12.90;101700.00;;;;4952148;28;92914;-60
2022/10/19 08:26:08;;;;;;;3.20;1.47;;;12.90;99.90;13.00;101704.00;;;;4949617;28;93120;-61
2022/10/19 08:28:34;;;;;;;2.37;0.80;;;12.90;99.90;13.00;101708.00;;;;4946191;28;110038;-61
2022/10/19 08:31:10;;;;;;;1.60;1.07;;;13.00;99.90;13.10;101706.00;;;;4953005;28;108176;-61
2022/10/19 08:33:35;;;;;;;0.90;0.90;;;13.10;99.90;13.10;101709.00;;;;4949124;28;112059;-60
2022/10/19 08:36:05;;;;;;;0.80;0.67;;;13.10;99.90;13.20;101705.00;;;;4947525;28;121567;-60
2022/10/19 08:38:31;;;;;;;1.10;0.97;;;13.20;99.90;13.20;101705.00;;;;4953587;28;92905;-61
2022/10/19 08:41:04;;;;;;;1.00;0.80;;;13.20;99.90;13.20;101711.00;;;;4947372;28;107794;-62
2022/10/19 08:43:37;;;;;;;1.10;1.00;;;13.20;99.90;13.20;101705.00;;;;4944198;28;116528;-60
2022/10/19 08:46:23;;;;;;;2.30;1.03;;;13.20;99.90;13.10;101705.00;;;;4961365;28;92998;-60
2022/10/19 08:48:50;;;;;;;1.47;1.00;;;13.20;99.90;13.10;101707.00;;;;4953554;28;92088;-60
2022/10/19 08:51:16;;;;;;;0.47;0.47;;;13.10;99.90;13.10;101715.00;;;;4951965;28;108903;-60
2022/10/19 08:53:50;;;;;;;0.80;0.80;;;13.10;99.90;13.10;101714.00;;;;4951827;28;123172;-59
2022/10/19 08:56:48;;;;;;;1.33;0.83;;;13.10;99.90;13.10;101720.00;;;;4944726;28;93758;-59
2022/10/19 08:59:41;;;;;;;1.70;1.20;;;13.10;99.90;13.20;101718.00;;;;4953485;28;92970;-60
2022/10/19 09:02:18;;;;;;;0.70;0.70;;;13.20;99.90;13.30;101716.00;;;;4955855;28;96074;-60
2022/10/19 09:04:49;;;;;;;0.60;0.50;;;13.30;99.90;13.40;101710.00;;;;4945371;28;99502;-60
2022/10/19 09:07:44;;;;;;;0.87;0.87;;;13.40;99.90;13.50;101706.00;;;;4948632;28;102201;-60
2022/10/19 09:10:13;;;;;;;1.37;0.80;;;13.40;99.90;13.60;101707.00;;;;4945796;28;93043;-60
2022/10/19 09:12:42;;;;;;;0.80;0.70;;;13.50;99.90;13.70;101701.00;;;;4950349;28;92783;-59
2022/10/19 09:15:18;;;;;;;0.73;0.70;;;13.60;99.90;13.80;101708.00;;;;4951106;28;93513;-60
2022/10/19 09:17:43;;;;;;;2.07;0.90;;;13.70;99.90;13.90;101708.00;;;;4947845;28;99728;-59
2022/10/19 09:20:21;;;;;;;1.57;1.10;;;13.90;99.90;14.10;101697.00;;;;4949722;28;100319;-59
2022/10/19 09:23:03;;;;;;;1.23;1.00;;;14.00;99.90;14.30;101708.00;;;;4946530;28;93687;-59
2022/10/19 09:25:32;;;;;;;0.60;0.60;;;14.20;99.90;14.40;101711.00;;;;4964755;28;93478;-60
2022/10/19 09:28:11;;;;;;;2.17;1.50;;;14.40;99.90;14.50;101713.00;;;;4950213;28;93782;-61
2022/10/19 09:30:38;;;;;;;1.05;0.60;;;14.40;99.90;14.60;101714.00;;;;4952349;28;93105;-60
2022/10/19 09:33:15;;;;;;;0.40;0.40;;;14.50;99.90;14.80;101716.00;;;;4950120;28;109026;-59
2022/10/19 09:35:44;;;;;;;2.93;0.63;;;14.60;99.90;15.00;101722.00;;;;4952030;28;92932;-59
2022/10/19 09:38:15;;;;;;;0.57;0.57;;;14.90;99.90;15.30;101722.00;;;;4946546;28;98244;-59
2022/10/19 09:40:41;;;;;;;1.83;0.75;;;15.20;99.90;15.50;101723.00;;;;4949066;28;92267;-60
2022/10/19 09:43:18;;;;;;;0.40;0.40;;;15.40;99.90;15.50;101728.00;;;;4951414;28;92940;-60
2022/10/19 09:45:51;;;;;;;0.52;0.50;;;15.50;99.90;15.60;101729.00;;;;4944424;28;94226;-60
2022/10/19 09:48:48;;;;;;;0.55;0.55;;;15.60;99.90;15.70;101738.00;;;;4942170;28;94151;-58
2022/10/19 09:51:16;;;;;;;0.25;0.25;;;15.70;99.90;15.80;101736.00;;;;4939553;28;97621;-61
2022/10/19 09:53:54;;;;;;;0.40;0.40;;;15.70;99.90;15.70;101746.00;;;;4947100;28;98348;-61
2022/10/19 09:56:23;;;;;;;1.38;0.85;;;15.70;99.90;15.60;101740.00;;;;4965525;28;93472;-60
2022/10/19 09:58:58;;;;;;;0.75;0.45;;;15.60;99.90;15.60;101737.00;;;;4949667;28;94031;-60
2022/10/19 10:01:37;;;;;;;2.17;1.00;;;15.60;99.90;15.60;101737.00;;;;4947825;28;92922;-58
2022/10/19 10:04:12;;;;;;;0.30;0.30;;;15.60;99.90;15.60;101754.00;;;;4952333;28;101788;-60
2022/10/19 10:06:39;;;;;;;0.32;0.32;;;15.60;99.90;15.50;101754.00;;;;4948101;28;92864;-60
2022/10/19 10:09:05;;;;;;;0.85;0.45;;;15.50;99.90;15.40;101752.00;;;;4944298;28;114349;-58
2022/10/19 10:11:37;;;;;;;1.80;0.52;;;15.50;99.90;15.40;101752.00;;;;4951455;28;110005;-56
2022/10/19 10:14:34;;;;;;;0.93;0.60;;;15.40;99.90;15.40;101741.00;;;;4942784;28;94038;-59
2022/10/19 10:17:11;;;;;;;1.17;0.57;;;15.40;99.90;15.40;101743.00;;;;4950118;28;117254;-59
2022/10/19 10:20:09;;;;;;;0.40;0.20;;;15.40;99.90;15.30;101749.00;;;;4948094;28;109875;-60
2022/10/19 10:22:36;;;;;;;1.05;0.52;;;15.40;99.90;15.30;101749.00;;;;4953846;28;93047;-60
2022/10/19 10:25:15;;;;;;;0.63;0.30;;;15.20;99.90;15.10;101752.00;;;;4950991;28;93156;-60
2022/10/19 10:27:40;;;;;;;1.05;0.50;;;15.10;99.90;15.10;101736.00;;;;4941751;28;93510;-59
2022/10/19 10:30:15;;;;;;;0.35;0.30;;;15.10;99.90;15.00;101742.00;;;;4949686;28;121604;-59
2022/10/19 10:32:53;;;;;;;0.35;0.35;;;15.10;99.90;15.00;101734.00;;;;4951623;28;92181;-60
2022/10/19 10:35:37;;;;;;;0.50;0.50;;;15.00;99.90;15.00;101743.00;;;;4954368;28;93203;-58
2022/10/19 10:38:16;;;;;;;0.40;0.40;;;14.90;99.90;15.00;101746.00;;;;4947216;28;123252;-58
2022/10/19 10:40:52;;;;;;;1.00;0.40;;;14.90;99.90;14.90;101741.00;;;;4949472;28;93953;-59
2022/10/19 10:43:28;;;;;;;0.75;0.55;;;15.00;99.90;14.90;101742.00;;;;4962743;28;92815;-59
2022/10/19 10:46:05;;;;;;;0.45;0.45;;;14.90;99.90;14.90;101743.00;;;;4949304;28;93232;-60
2022/10/19 10:49:05;;;;;;;0.30;0.20;;;14.90;99.90;14.80;101748.00;;;;4957922;28;93471;-60
2022/10/19 10:51:44;;;;;;;0.50;0.30;;;14.80;99.90;14.70;101737.00;;;;4950249;28;113279;-60
2022/10/19 10:54:31;;;;;;;1.27;0.47;;;14.70;99.90;14.70;101737.00;;;;4952006;28;93188;-60
2022/10/19 10:57:04;;;;;;;1.70;0.67;;;14.70;99.90;14.70;101735.00;;;;4946968;28;92903;-59
2022/10/19 10:59:57;;;;;;;0.17;0.17;;;14.70;99.90;14.70;101745.00;;;;4947186;28;92610;-59